createdAt,value
2019-04-30T00:01:39.334Z,4.58
2019-04-30T00:06:46.393Z,5.16
2019-04-30T00:11:57.984Z,4.66
2019-04-30T00:16:59.258Z,4.67
2019-04-30T00:22:06.649Z,4.65
2019-04-30T00:27:15.100Z,4.91
2019-04-30T00:32:21.802Z,4.81
2019-04-30T00:37:29.640Z,5.07
2019-04-30T00:42:37.245Z,4.85
2019-04-30T00:47:47.767Z,4.82
2019-04-30T00:52:45.763Z,5.56
2019-04-30T00:57:52.493Z,5.60
2019-04-30T01:03:00.881Z,6.18
2019-04-30T01:08:01.727Z,6.21
2019-04-30T01:13:11.936Z,6.86
2019-04-30T01:18:09.337Z,6.95
2019-04-30T01:23:19.530Z,7.51
2019-04-30T01:28:19.993Z,9.05
2019-04-30T01:33:19.535Z,10.03
2019-04-30T01:38:26.407Z,11.20
2019-04-30T01:43:34.686Z,11.92
2019-04-30T01:48:43.673Z,12.42
2019-04-30T01:53:45.008Z,12.22
2019-04-30T01:58:51.986Z,12.87
2019-04-30T02:03:58.852Z,13.28
2019-04-30T02:09:05.790Z,13.16
2019-04-30T02:14:12.834Z,13.55
2019-04-30T02:19:20.065Z,13.69
2019-04-30T02:24:28.858Z,13.85
2019-04-30T02:29:35.948Z,14.23
2019-04-30T02:34:44.393Z,14.94
2019-04-30T02:39:51.573Z,15.57
2019-04-30T02:45:00.121Z,15.94
2019-04-30T02:50:14.094Z,16.71
2019-04-30T02:55:09.453Z,16.49
2019-04-30T03:00:16.502Z,15.66
2019-04-30T03:05:23.315Z,14.68
2019-04-30T03:10:30.439Z,13.98
2019-04-30T03:15:39.253Z,14.52
2019-04-30T03:20:46.080Z,13.94
2019-04-30T03:25:53.032Z,14.58
2019-04-30T03:31:04.228Z,15.35
2019-04-30T03:36:02.570Z,15.26
2019-04-30T03:41:09.806Z,14.45
2019-04-30T03:46:16.236Z,14.39
2019-04-30T03:51:23.192Z,14.44
2019-04-30T03:56:30.120Z,14.13
2019-04-30T04:01:39.868Z,14.16
2019-04-30T04:06:49.027Z,14.07
2019-04-30T04:11:55.903Z,14.33
2019-04-30T04:17:02.701Z,15.22
2019-04-30T04:22:11.956Z,15.85
2019-04-30T04:27:19.410Z,16.50
2019-04-30T04:32:26.155Z,16.61
2019-04-30T04:37:33.038Z,16.95
2019-04-30T04:42:39.909Z,17.73
2019-04-30T04:47:46.650Z,16.53
2019-04-30T04:52:53.517Z,17.49
2019-04-30T04:58:00.326Z,17.67
2019-04-30T05:03:09.337Z,18.19
2019-04-30T05:08:15.939Z,18.92
2019-04-30T05:13:22.802Z,19.91
2019-04-30T05:18:29.816Z,20.31
2019-04-30T05:23:37.144Z,20.82
2019-04-30T05:28:44.000Z,22.28
2019-04-30T05:33:50.790Z,22.05
2019-04-30T05:38:58.732Z,23.63
2019-04-30T05:44:05.321Z,24.44
2019-04-30T05:49:12.229Z,24.05
2019-04-30T05:54:19.117Z,24.82
2019-04-30T05:59:26.027Z,23.51
2019-04-30T06:04:32.901Z,23.70
2019-04-30T06:09:39.867Z,23.48
2019-04-30T06:14:49.272Z,23.58
2019-04-30T06:19:48.758Z,23.31
2019-04-30T06:24:59.495Z,24.16
2019-04-30T06:30:06.193Z,24.87
2019-04-30T06:35:13.193Z,25.17
2019-04-30T06:40:20.260Z,23.76
2019-04-30T06:45:28.908Z,23.92
2019-04-30T06:50:35.792Z,22.79
2019-04-30T06:55:42.698Z,21.91
2019-04-30T07:00:49.762Z,21.19
2019-04-30T07:05:58.472Z,22.03
2019-04-30T07:11:08.605Z,22.19
2019-04-30T07:16:08.386Z,22.56
2019-04-30T07:21:19.536Z,21.51
2019-04-30T07:26:28.799Z,21.34
2019-04-30T07:31:35.694Z,21.41
2019-04-30T07:36:46.812Z,21.79
2019-04-30T07:41:45.565Z,20.99
2019-04-30T07:46:52.471Z,19.56
2019-04-30T07:52:01.508Z,19.59
2019-04-30T07:57:09.517Z,17.91
2019-04-30T08:02:16.174Z,17.19
2019-04-30T08:07:22.988Z,16.72
2019-04-30T08:12:34.614Z,16.97
2019-04-30T08:17:32.585Z,16.43
2019-04-30T08:22:41.141Z,15.99
2019-04-30T08:27:49.308Z,16.24
2019-04-30T08:32:56.442Z,13.72
2019-04-30T08:38:03.867Z,14.46
2019-04-30T08:43:10.868Z,14.95
2019-04-30T08:48:18.999Z,15.10
2019-04-30T08:53:29.214Z,13.77
2019-04-30T08:58:29.336Z,13.62
2019-04-30T09:03:35.938Z,13.96
2019-04-30T09:08:42.865Z,13.68
2019-04-30T09:13:49.788Z,13.36
2019-04-30T09:18:56.958Z,13.22
2019-04-30T09:24:03.727Z,13.25
2019-04-30T09:29:10.517Z,13.73
2019-04-30T09:34:20.652Z,13.98
2019-04-30T09:39:19.513Z,15.43
2019-04-30T09:44:26.683Z,14.16
2019-04-30T09:49:33.509Z,14.72
2019-04-30T09:54:40.714Z,21.07
2019-04-30T09:59:48.609Z,19.24
2019-04-30T10:04:56.300Z,16.79
2019-04-30T10:10:03.211Z,15.27
2019-04-30T10:15:10.966Z,15.36
2019-04-30T10:20:17.944Z,15.70
2019-04-30T10:25:25.057Z,16.83
2019-04-30T10:30:31.849Z,16.48
2019-04-30T10:35:38.775Z,14.94
2019-04-30T10:40:45.691Z,16.11
2019-04-30T10:45:52.728Z,15.70
2019-04-30T10:50:59.654Z,16.39
2019-04-30T10:56:06.554Z,17.17
2019-04-30T11:01:13.457Z,17.12
2019-04-30T11:06:20.529Z,18.01
2019-04-30T11:11:28.267Z,17.75
2019-04-30T11:16:37.212Z,19.53
2019-04-30T11:21:44.739Z,20.89
2019-04-30T11:26:52.619Z,22.31
2019-04-30T11:32:00.655Z,38.15
2019-04-30T11:37:07.985Z,21.18
2019-04-30T11:42:15.553Z,17.51
2019-04-30T11:47:22.666Z,20.53
2019-04-30T11:52:29.976Z,31.28
2019-04-30T11:57:36.987Z,18.81
2019-04-30T12:02:55.838Z,17.56
2019-04-30T12:07:52.853Z,17.54
2019-04-30T12:13:00.114Z,17.30
2019-04-30T12:18:07.473Z,14.35
2019-04-30T12:23:14.344Z,15.10
2019-04-30T12:28:22.138Z,23.07
2019-04-30T12:33:29.507Z,18.90
2019-04-30T12:38:36.689Z,20.98
2019-04-30T12:43:43.885Z,19.79
2019-04-30T12:48:51.041Z,20.05
2019-04-30T12:53:58.071Z,20.37
2019-04-30T12:59:04.973Z,20.61
2019-04-30T13:04:12.278Z,20.45
2019-04-30T13:09:20.305Z,21.21
2019-04-30T13:14:30.112Z,21.32
2019-04-30T13:18:00.318Z,19.04
2019-04-30T13:19:45.973Z,10.36
2019-04-30T13:20:39.275Z,17.14
2019-04-30T13:30:30.091Z,20.84
2019-04-30T14:02:20.132Z,25.92
2019-04-30T15:32:05.397Z,24.92
2019-04-30T15:50:43.387Z,24.80
2019-04-30T16:13:01.154Z,26.70
